Time;durP1;ratioP1;P1;durP2;ratioP2;P2;SDS_P1;SDS_P2;PMS_P1;PMS_P2;Temp;Humidity;BMP_temperature;BMP_pressure;BME280_temperature;BME280_humidity;BME280_pressure;Samples;Min_cycle;Max_cycle;Signal;HPM_P1;HPM_P2
2022/10/31 00:01:24;;;;;;;21.55;10.27;;;14.90;99.90;;;;;;5054132;28;20484;-68
2022/10/31 00:03:50;;;;;;;17.90;10.68;;;14.60;99.90;;;;;;5038635;28;20080;-67
2022/10/31 00:06:19;;;;;;;27.98;10.05;;;14.60;99.90;;;;;;5023606;28;20030;-68
2022/10/31 00:08:52;;;;;;;19.20;9.55;;;14.40;99.90;;;;;;5051538;28;20036;-67
2022/10/31 00:11:18;;;;;;;18.35;9.85;;;14.20;99.90;;;;;;5055122;28;20017;-68
2022/10/31 00:13:44;;;;;;;22.25;10.50;;;14.20;99.90;;;;;;5055092;28;20564;-67
2022/10/31 00:16:17;;;;;;;17.17;10.43;;;14.20;99.90;;;;;;5054301;28;20423;-68
2022/10/31 00:18:43;;;;;;;17.83;9.65;;;14.10;99.90;;;;;;5054816;28;20048;-68
2022/10/31 00:21:09;;;;;;;15.70;10.05;;;14.10;99.90;;;;;;5055137;28;20028;-68
2022/10/31 00:23:35;;;;;;;21.05;10.45;;;14.00;99.90;;;;;;5054899;28;20108;-68
2022/10/31 00:26:02;;;;;;;24.63;10.65;;;14.10;99.90;;;;;;5054763;28;20123;-67
2022/10/31 00:28:30;;;;;;;16.55;9.43;;;14.20;99.90;;;;;;5037198;28;20033;-68
2022/10/31 00:31:01;;;;;;;18.30;10.10;;;14.20;99.90;;;;;;5055148;28;20033;-68
2022/10/31 00:33:27;;;;;;;25.00;11.63;;;14.20;99.90;;;;;;5054796;28;20056;-68
2022/10/31 00:35:53;;;;;;;26.08;11.50;;;14.30;99.90;;;;;;5054696;28;20393;-69
2022/10/31 00:38:26;;;;;;;20.80;11.90;;;14.20;99.90;;;;;;5052336;28;20048;-67
2022/10/31 00:40:51;;;;;;;23.55;10.80;;;14.40;99.90;;;;;;5053360;28;20074;-68
2022/10/31 00:43:17;;;;;;;22.42;13.32;;;14.30;99.90;;;;;;5053503;28;20017;-68
2022/10/31 00:45:43;;;;;;;21.88;12.32;;;14.30;99.90;;;;;;5053640;28;20547;-68
2022/10/31 00:48:10;;;;;;;23.20;12.48;;;14.40;99.90;;;;;;5054715;28;20028;-68
2022/10/31 00:50:36;;;;;;;18.50;12.20;;;14.30;99.90;;;;;;5054374;28;20107;-67
2022/10/31 00:53:02;;;;;;;20.13;11.85;;;14.20;99.90;;;;;;5054656;28;20155;-68
2022/10/31 00:55:28;;;;;;;21.27;11.48;;;14.20;99.90;;;;;;5054180;28;20037;-68
2022/10/31 00:57:53;;;;;;;25.50;12.55;;;14.20;99.90;;;;;;5052835;28;20059;-68
2022/10/31 01:00:20;;;;;;;22.15;12.23;;;14.30;99.90;;;;;;5053119;28;20025;-68
2022/10/31 01:02:46;;;;;;;27.10;14.07;;;14.20;99.90;;;;;;5053440;28;20033;-68
2022/10/31 01:05:13;;;;;;;18.92;12.30;;;14.30;99.90;;;;;;5053822;28;20370;-68
2022/10/31 01:07:40;;;;;;;25.45;11.23;;;14.20;99.90;;;;;;5053123;28;20116;-68
2022/10/31 01:10:09;;;;;;;26.70;12.20;;;14.10;99.90;;;;;;5052146;28;20477;-68
2022/10/31 01:12:41;;;;;;;28.02;11.70;;;14.20;99.90;;;;;;5053780;28;20021;-68
2022/10/31 01:15:08;;;;;;;22.48;11.77;;;14.20;99.90;;;;;;5053805;28;20079;-68
2022/10/31 01:17:34;;;;;;;17.15;10.88;;;14.20;99.90;;;;;;5052728;28;20087;-68
2022/10/31 01:20:00;;;;;;;24.58;12.00;;;14.30;99.90;;;;;;5053083;28;20408;-68
2022/10/31 01:22:27;;;;;;;20.58;11.60;;;14.30;99.90;;;;;;5053555;28;20032;-68
2022/10/31 01:24:52;;;;;;;25.02;12.05;;;14.20;99.90;;;;;;5053711;28;20021;-67
2022/10/31 01:27:18;;;;;;;27.25;12.43;;;14.40;99.90;;;;;;5053102;28;20029;-68
2022/10/31 01:29:45;;;;;;;20.02;11.48;;;14.40;99.90;;;;;;5052861;28;20032;-67
2022/10/31 01:32:11;;;;;;;21.30;11.35;;;14.20;99.90;;;;;;5053432;28;20381;-68
2022/10/31 01:34:36;;;;;;;22.67;10.70;;;14.10;99.90;;;;;;5053525;28;20032;-68
2022/10/31 01:37:02;;;;;;;17.95;10.15;;;13.90;99.90;;;;;;5053761;28;20029;-68
2022/10/31 01:39:28;;;;;;;20.38;10.63;;;14.00;99.90;;;;;;5051765;28;20048;-68
2022/10/31 01:41:55;;;;;;;25.15;10.10;;;13.90;99.90;;;;;;5050426;28;20066;-68
2022/10/31 01:44:21;;;;;;;22.40;11.43;;;13.90;99.90;;;;;;5053306;28;20047;-67
2022/10/31 01:46:53;;;;;;;19.05;10.65;;;13.90;99.90;;;;;;5052505;28;20533;-68
2022/10/31 01:49:28;;;;;;;17.98;11.13;;;13.90;99.90;;;;;;5052204;28;20441;-68
2022/10/31 01:52:07;;;;;;;23.40;10.85;;;13.80;99.90;;;;;;5052350;28;20071;-68
2022/10/31 01:54:39;;;;;;;25.27;10.52;;;13.80;99.90;;;;;;5051747;28;20032;-67
2022/10/31 01:57:07;;;;;;;22.92;11.98;;;13.70;99.90;;;;;;5052162;28;20021;-68
2022/10/31 01:59:39;;;;;;;21.42;11.90;;;13.90;99.90;;;;;;5052085;28;20489;-68
2022/10/31 02:02:05;;;;;;;;;;;13.80;99.90;;;;;;5052592;28;20024;-67
2022/10/31 02:04:32;;;;;;;25.30;12.13;;;13.70;99.90;;;;;;5051814;28;19913;-68
2022/10/31 02:07:10;;;;;;;18.15;12.13;;;13.70;99.90;;;;;;5053174;28;20017;-68
2022/10/31 02:09:37;;;;;;;28.30;13.07;;;13.80;99.90;;;;;;5052938;28;20039;-68
2022/10/31 02:12:04;;;;;;;29.30;13.30;;;13.80;99.90;;;;;;5051716;28;20361;-68
2022/10/31 02:14:31;;;;;;;20.40;12.32;;;13.80;99.90;;;;;;5051956;28;20032;-68
2022/10/31 02:16:57;;;;;;;24.65;12.73;;;13.70;99.90;;;;;;5052013;28;20091;-68
2022/10/31 02:20:06;;;;;;;27.38;12.30;;;13.80;99.90;;;;;;5051618;28;20380;-68
2022/10/31 02:23:08;;;;;;;28.55;12.27;;;13.80;99.90;;;;;;5045735;28;20033;-68
2022/10/31 02:25:46;;;;;;;;;;;13.90;99.90;;;;;;5052025;28;20095;-68
2022/10/31 02:28:12;;;;;;;28.70;12.70;;;13.80;99.90;;;;;;5051915;28;19908;-68
2022/10/31 02:31:12;;;;;;;27.92;12.88;;;13.80;99.90;;;;;;5051282;28;20024;-68
2022/10/31 02:33:58;;;;;;;24.25;12.35;;;13.90;99.90;;;;;;5038651;28;20421;-68
2022/10/31 02:36:47;;;;;;;28.38;12.35;;;13.80;99.90;;;;;;5052247;28;20067;-68
2022/10/31 02:39:23;;;;;;;32.42;12.90;;;13.70;99.90;;;;;;5048514;28;20041;-68
2022/10/31 02:42:09;;;;;;;29.70;13.13;;;13.50;99.90;;;;;;5052805;28;20032;-68
2022/10/31 02:44:43;;;;;;;26.85;13.15;;;13.50;99.90;;;;;;5051291;28;20021;-68
2022/10/31 02:47:13;;;;;;;23.08;13.32;;;13.50;99.90;;;;;;5052784;28;20024;-68
2022/10/31 02:50:07;;;;;;;27.88;14.13;;;13.60;99.90;;;;;;5034270;28;20025;-68
2022/10/31 02:52:34;;;;;;;27.58;13.57;;;13.40;99.90;;;;;;5050978;28;20025;-68
2022/10/31 02:55:35;;;;;;;27.27;13.98;;;13.30;99.90;;;;;;5051275;28;20162;-68
2022/10/31 02:58:11;;;;;;;28.25;13.85;;;13.40;99.90;;;;;;5050997;28;20040;-68
2022/10/31 03:00:42;;;;;;;20.38;12.48;;;13.30;99.90;;;;;;5031029;28;20018;-67
2022/10/31 03:03:17;;;;;;;;;;;13.30;99.90;;;;;;5047608;28;20021;-68
2022/10/31 03:06:05;;;;;;;28.60;13.43;;;13.30;99.90;;;;;;5050904;28;20322;-68
2022/10/31 03:08:46;;;;;;;27.77;13.07;;;13.50;99.90;;;;;;5052021;28;20473;-68
2022/10/31 03:11:12;;;;;;;30.27;13.10;;;13.40;99.90;;;;;;5071740;28;20033;-68
2022/10/31 03:13:44;;;;;;;27.17;14.38;;;13.40;99.90;;;;;;5054363;28;20041;-68
2022/10/31 03:16:42;;;;;;;25.52;13.90;;;13.30;99.90;;;;;;5071234;28;20056;-68
2022/10/31 03:19:23;;;;;;;26.45;13.88;;;13.20;99.90;;;;;;5071253;28;20051;-68
2022/10/31 03:21:57;;;;;;;20.70;13.68;;;13.30;99.90;;;;;;5070933;28;20017;-68
2022/10/31 03:24:37;;;;;;;34.47;14.35;;;13.30;99.90;;;;;;5071164;28;20055;-68
2022/10/31 03:27:05;;;;;;;29.63;15.13;;;13.20;99.90;;;;;;5071014;28;20503;-68
2022/10/31 03:29:35;;;;;;;33.30;14.70;;;13.40;99.90;;;;;;5070975;28;20457;-68
2022/10/31 03:32:13;;;;;;;31.13;14.07;;;13.50;99.90;;;;;;5072138;28;20100;-68
2022/10/31 03:34:42;;;;;;;28.30;13.70;;;13.50;99.90;;;;;;5070455;28;20120;-68
2022/10/31 03:37:13;;;;;;;29.60;15.20;;;13.40;99.90;;;;;;5070888;28;20024;-68
2022/10/31 03:39:43;;;;;;;24.50;13.90;;;13.20;99.90;;;;;;5072142;28;20476;-68
2022/10/31 03:42:11;;;;;;;33.42;12.07;;;13.10;99.90;;;;;;5070922;28;20017;-68
2022/10/31 03:44:39;;;;;;;18.42;11.30;;;13.00;99.90;;;;;;5054084;28;20115;-68
2022/10/31 03:47:05;;;;;;;27.25;11.23;;;12.60;99.90;;;;;;5072249;28;20021;-68
2022/10/31 03:49:32;;;;;;;23.13;13.38;;;12.50;99.90;;;;;;5070450;28;20020;-68
2022/10/31 03:52:26;;;;;;;25.58;11.45;;;12.70;99.90;;;;;;5071043;28;20029;-68
2022/10/31 03:55:27;;;;;;;21.70;10.95;;;12.70;99.90;;;;;;5054087;28;20028;-68
2022/10/31 03:58:03;;;;;;;25.50;11.07;;;12.60;99.90;;;;;;5070721;28;20033;-68
2022/10/31 04:00:31;;;;;;;28.35;12.48;;;12.70;99.90;;;;;;5070659;28;20016;-68
2022/10/31 04:03:09;;;;;;;21.98;12.13;;;12.90;99.90;;;;;;5070648;28;20088;-68
2022/10/31 04:05:38;;;;;;;17.35;10.35;;;12.80;99.90;;;;;;5070189;28;20040;-68
2022/10/31 04:08:09;;;;;;;30.08;12.20;;;12.80;99.90;;;;;;5053624;28;20029;-68
2022/10/31 04:10:37;;;;;;;15.13;10.70;;;12.80;99.90;;;;;;5070437;28;20025;-68
2022/10/31 04:13:12;;;;;;;18.02;11.27;;;12.70;99.90;;;;;;5071474;28;20480;-68
2022/10/31 04:15:48;;;;;;;17.90;11.65;;;12.70;99.90;;;;;;5074052;28;20086;-68
2022/10/31 04:18:16;;;;;;;18.08;10.85;;;12.70;99.90;;;;;;5066552;28;20504;-68
2022/10/31 04:20:42;;;;;;;17.70;9.60;;;12.80;99.90;;;;;;5071966;28;20017;-68
2022/10/31 04:23:17;;;;;;;22.30;10.20;;;12.70;99.90;;;;;;5073781;28;20028;-68
2022/10/31 04:25:42;;;;;;;16.98;10.35;;;12.60;99.90;;;;;;5073390;28;20032;-69
2022/10/31 04:28:08;;;;;;;21.63;10.45;;;12.60;99.90;;;;;;5073957;28;20494;-70
2022/10/31 04:30:34;;;;;;;16.30;9.98;;;12.60;99.90;;;;;;5056917;28;20028;-69
2022/10/31 04:33:00;;;;;;;12.55;8.35;;;12.60;99.90;;;;;;5056540;28;20478;-69
2022/10/31 04:35:26;;;;;;;17.75;9.75;;;12.50;99.90;;;;;;5073624;28;20028;-69
2022/10/31 04:37:53;;;;;;;14.95;9.55;;;12.40;99.90;;;;;;5073531;28;20137;-68
2022/10/31 04:40:20;;;;;;;13.90;9.68;;;12.40;99.90;;;;;;5073325;28;20389;-69
2022/10/31 04:43:04;;;;;;;18.08;10.35;;;12.40;99.90;;;;;;5074812;28;20086;-70
2022/10/31 04:45:31;;;;;;;20.42;9.43;;;12.40;99.90;;;;;;5073389;28;20017;-67
2022/10/31 04:47:56;;;;;;;17.38;9.40;;;12.40;99.90;;;;;;5073211;28;20476;-69
2022/10/31 04:50:23;;;;;;;15.90;9.20;;;12.40;99.90;;;;;;5073457;28;20090;-69
2022/10/31 04:52:50;;;;;;;17.35;10.07;;;12.40;99.90;;;;;;5072895;28;20036;-70
2022/10/31 04:55:19;;;;;;;20.67;8.98;;;12.40;99.90;;;;;;5073313;28;20031;-70
2022/10/31 04:58:03;;;;;;;18.55;8.82;;;12.40;99.90;;;;;;5074480;28;20052;-69
2022/10/31 05:00:29;;;;;;;13.20;7.80;;;12.40;99.90;;;;;;5073129;28;20571;-70
2022/10/31 05:02:57;;;;;;;15.07;8.30;;;12.30;99.90;;;;;;5072781;28;20047;-69
2022/10/31 05:05:29;;;;;;;15.38;9.13;;;12.30;99.90;;;;;;5072761;28;20169;-69
2022/10/31 05:07:56;;;;;;;14.10;8.82;;;12.30;99.90;;;;;;5073045;28;20071;-69
2022/10/31 05:10:28;;;;;;;17.35;10.05;;;12.30;99.90;;;;;;5072893;28;20357;-69
2022/10/31 05:12:59;;;;;;;14.70;9.55;;;12.20;99.90;;;;;;5073111;28;20093;-69
2022/10/31 05:15:43;;;;;;;17.73;9.25;;;12.10;99.90;;;;;;5073887;28;20027;-69
2022/10/31 05:18:41;;;;;;;18.75;10.18;;;12.10;99.90;;;;;;5073599;28;20052;-69
2022/10/31 05:21:30;;;;;;;19.92;10.30;;;12.00;99.90;;;;;;5064061;28;20038;-69
2022/10/31 05:24:01;;;;;;;19.42;9.70;;;12.00;99.90;;;;;;5083289;28;20035;-69
2022/10/31 05:26:29;;;;;;;21.45;9.95;;;12.10;99.90;;;;;;5072570;28;20114;-69
2022/10/31 05:28:55;;;;;;;24.17;10.00;;;12.00;99.90;;;;;;5072549;28;20025;-69
2022/10/31 05:31:21;;;;;;;39.47;9.25;;;11.90;99.90;;;;;;5073158;28;20020;-69
2022/10/31 05:33:48;;;;;;;10.55;7.95;;;12.00;99.90;;;;;;5072583;28;20387;-69
2022/10/31 05:36:32;;;;;;;15.70;8.82;;;11.90;99.90;;;;;;5073816;28;20047;-69
2022/10/31 05:39:00;;;;;;;14.50;9.10;;;12.00;99.90;;;;;;5073424;28;20055;-69
2022/10/31 05:41:40;;;;;;;13.77;8.32;;;12.00;99.90;;;;;;5072007;28;20024;-69
2022/10/31 05:44:18;;;;;;;20.38;9.57;;;11.90;99.90;;;;;;5072347;28;20029;-69
2022/10/31 05:47:06;;;;;;;21.52;11.02;;;11.90;99.90;;;;;;5071969;28;20020;-69
2022/10/31 05:49:50;;;;;;;14.75;9.65;;;11.90;99.90;;;;;;5072055;28;20032;-69
2022/10/31 05:52:34;;;;;;;13.90;9.18;;;12.00;99.90;;;;;;5073663;28;20564;-69
2022/10/31 05:55:07;;;;;;;13.75;8.13;;;12.00;99.90;;;;;;5071961;28;20028;-69
2022/10/31 05:57:34;;;;;;;13.48;7.40;;;12.00;99.90;;;;;;5072446;28;20033;-69
2022/10/31 06:00:00;;;;;;;15.02;8.05;;;12.00;99.90;;;;;;5071546;28;20442;-69
2022/10/31 06:02:27;;;;;;;18.40;7.57;;;12.10;99.90;;;;;;5071918;28;20056;-71
2022/10/31 06:05:13;;;;;;;12.23;7.20;;;12.00;99.90;;;;;;5045727;28;20173;-69
2022/10/31 06:07:39;;;;;;;12.10;7.97;;;12.00;99.90;;;;;;5071830;28;20036;-69
2022/10/31 06:10:07;;;;;;;16.90;9.32;;;12.10;99.90;;;;;;5073489;28;20025;-69
2022/10/31 06:12:38;;;;;;;13.52;9.07;;;12.20;99.90;;;;;;5071487;28;20488;-69
2022/10/31 06:15:29;;;;;;;17.98;8.05;;;12.30;99.90;;;;;;5072079;28;20028;-69
2022/10/31 06:18:01;;;;;;;18.88;9.68;;;12.40;99.90;;;;;;5071609;28;20480;-69
2022/10/31 06:20:30;;;;;;;17.25;9.15;;;12.40;99.90;;;;;;5071454;28;20024;-69
2022/10/31 06:23:01;;;;;;;14.38;8.57;;;12.40;99.90;;;;;;5071458;28;20164;-69
2022/10/31 06:25:27;;;;;;;18.98;8.93;;;12.40;99.90;;;;;;5071278;28;20046;-69
2022/10/31 06:27:53;;;;;;;13.48;8.63;;;12.40;99.90;;;;;;5071566;28;20112;-69
2022/10/31 06:30:22;;;;;;;17.55;9.40;;;12.40;99.90;;;;;;5071352;28;20495;-69
2022/10/31 06:32:49;;;;;;;16.83;9.25;;;12.50;99.90;;;;;;5071265;28;20020;-69
2022/10/31 06:35:15;;;;;;;18.08;9.82;;;12.50;99.90;;;;;;5053953;28;20033;-69
2022/10/31 06:37:41;;;;;;;19.27;9.32;;;12.50;99.90;;;;;;5059704;28;20643;-69
2022/10/31 06:40:26;;;;;;;19.35;10.30;;;12.60;99.90;;;;;;5053339;28;20035;-69
2022/10/31 06:43:11;;;;;;;18.63;10.68;;;12.60;99.90;;;;;;5046560;28;20028;-69
2022/10/31 06:45:39;;;;;;;16.27;11.50;;;12.60;99.90;;;;;;5054347;28;20025;-69
2022/10/31 06:48:23;;;;;;;17.98;11.05;;;12.70;99.90;;;;;;5051190;28;20021;-69
2022/10/31 06:51:27;;;;;;;20.73;10.77;;;12.70;99.90;;;;;;5061310;28;20041;-69
2022/10/31 06:53:53;;;;;;;30.40;11.10;;;12.80;99.90;;;;;;5035858;28;20022;-69
2022/10/31 06:56:19;;;;;;;27.58;10.82;;;12.60;99.90;;;;;;5049005;28;20031;-69
2022/10/31 06:58:49;;;;;;;49.65;11.80;;;12.70;99.90;;;;;;5051328;28;20072;-69
2022/10/31 07:01:18;;;;;;;39.22;13.93;;;12.80;99.90;;;;;;5056721;28;20028;-69
2022/10/31 07:03:44;;;;;;;38.65;14.23;;;12.90;99.90;;;;;;5054665;28;20033;-69
2022/10/31 07:06:10;;;;;;;36.42;13.82;;;12.90;99.90;;;;;;5049654;28;20026;-69
2022/10/31 07:08:38;;;;;;;39.85;15.75;;;12.90;99.90;;;;;;5053537;28;20025;-69
2022/10/31 07:11:04;;;;;;;28.13;14.20;;;13.00;99.90;;;;;;5062273;28;20024;-69
2022/10/31 07:13:30;;;;;;;47.20;16.85;;;13.00;99.90;;;;;;5054121;28;20469;-69
2022/10/31 07:16:07;;;;;;;46.47;16.35;;;12.90;99.90;;;;;;5051843;28;20037;-69
2022/10/31 07:18:35;;;;;;;54.40;15.88;;;13.00;99.90;;;;;;5065256;28;20483;-69
2022/10/31 07:21:01;;;;;;;43.75;16.10;;;13.10;99.90;;;;;;5070160;28;20048;-69
2022/10/31 07:23:27;;;;;;;34.88;14.15;;;13.10;99.90;;;;;;5071246;28;20072;-69
2022/10/31 07:26:15;;;;;;;41.67;15.77;;;13.30;99.90;;;;;;5065314;28;20033;-69
2022/10/31 07:28:47;;;;;;;46.05;15.95;;;13.50;99.90;;;;;;5067437;28;20024;-69
2022/10/31 07:31:13;;;;;;;42.78;14.68;;;13.50;99.90;;;;;;5048548;28;20025;-69
2022/10/31 07:33:40;;;;;;;25.45;12.90;;;13.50;99.90;;;;;;5049915;28;20025;-68
2022/10/31 07:36:24;;;;;;;41.70;13.88;;;13.40;99.90;;;;;;5041564;28;20413;-68
2022/10/31 07:38:52;;;;;;;40.80;20.88;;;13.00;99.90;;;;;;5028677;28;20057;-68
2022/10/31 07:41:19;;;;;;;42.78;31.25;;;13.00;99.90;;;;;;5032666;28;20022;-68
2022/10/31 07:43:45;;;;;;;43.10;25.70;;;13.30;99.90;;;;;;5032896;28;20025;-68
2022/10/31 07:46:16;;;;;;;26.45;19.58;;;13.60;99.90;;;;;;5034193;28;20274;-68
2022/10/31 07:49:01;;;;;;;26.27;15.68;;;13.60;99.90;;;;;;5036993;28;20060;-68
2022/10/31 07:51:45;;;;;;;29.23;15.18;;;13.40;99.90;;;;;;5048943;28;20032;-68
2022/10/31 07:54:29;;;;;;;20.98;14.40;;;13.50;99.90;;;;;;5040754;28;20503;-68
2022/10/31 07:56:55;;;;;;;27.40;15.57;;;13.70;99.90;;;;;;5060530;28;20037;-68
2022/10/31 07:59:20;;;;;;;21.27;14.80;;;13.90;99.90;;;;;;5048387;28;20052;-67
2022/10/31 08:01:47;;;;;;;22.60;14.75;;;13.90;99.90;;;;;;5050265;28;20032;-69
2022/10/31 08:04:31;;;;;;;26.45;15.27;;;13.90;99.90;;;;;;5046176;28;20028;-69
2022/10/31 08:07:16;;;;;;;27.42;15.18;;;14.10;99.90;;;;;;5047964;28;20163;-68
2022/10/31 08:09:47;;;;;;;22.00;14.50;;;14.10;99.90;;;;;;5048085;28;20452;-68
2022/10/31 08:12:19;;;;;;;26.10;15.70;;;14.30;99.90;;;;;;5036259;28;20022;-68
2022/10/31 08:14:45;;;;;;;23.70;15.10;;;14.30;99.90;;;;;;5053572;28;20025;-68
2022/10/31 08:17:12;;;;;;;26.40;14.52;;;14.30;99.90;;;;;;5056848;28;20381;-68
2022/10/31 08:19:50;;;;;;;25.35;14.40;;;14.40;99.90;;;;;;5073369;28;20037;-68
2022/10/31 08:22:18;;;;;;;22.02;14.50;;;14.40;99.90;;;;;;5057593;28;20025;-68
2022/10/31 08:24:44;;;;;;;26.38;14.20;;;14.30;99.90;;;;;;5072230;28;20021;-68
2022/10/31 08:27:10;;;;;;;26.80;14.77;;;14.40;99.90;;;;;;5072579;28;20455;-67
2022/10/31 08:29:38;;;;;;;27.60;14.32;;;14.50;99.90;;;;;;5073808;28;20476;-68
2022/10/31 08:32:04;;;;;;;25.40;14.07;;;14.40;99.90;;;;;;5073644;28;20029;-68
2022/10/31 08:34:52;;;;;;;23.30;15.40;;;14.60;99.90;;;;;;5070865;28;20060;-68
2022/10/31 08:37:37;;;;;;;27.95;16.17;;;14.80;99.90;;;;;;5054705;28;20051;-68
2022/10/31 08:40:06;;;;;;;32.45;15.20;;;14.90;99.90;;;;;;5053265;28;20036;-67
2022/10/31 08:42:33;;;;;;;26.85;15.02;;;14.80;99.90;;;;;;5053255;28;20032;-68
2022/10/31 08:44:59;;;;;;;23.88;14.63;;;14.80;99.90;;;;;;5053098;28;20419;-68
2022/10/31 08:47:27;;;;;;;38.28;15.73;;;14.90;99.90;;;;;;5053382;28;20025;-68
2022/10/31 08:49:54;;;;;;;39.03;15.13;;;15.00;99.90;;;;;;5053179;28;20057;-68
2022/10/31 08:52:24;;;;;;;37.63;16.55;;;14.90;99.90;;;;;;5052785;28;20436;-68
2022/10/31 08:54:50;;;;;;;45.53;18.02;;;14.90;99.90;;;;;;5032899;28;20029;-68
2022/10/31 08:57:36;;;;;;;34.15;15.98;;;15.00;99.90;;;;;;5050320;28;20029;-68
2022/10/31 09:00:02;;;;;;;29.75;15.18;;;15.30;99.90;;;;;;5051997;28;20440;-68
2022/10/31 09:02:47;;;;;;;30.65;15.07;;;15.30;99.90;;;;;;5054219;28;20060;-68
2022/10/31 09:05:13;;;;;;;24.05;13.57;;;15.30;99.90;;;;;;5052136;28;20071;-68
2022/10/31 09:07:39;;;;;;;28.52;14.00;;;15.40;99.90;;;;;;5053338;28;20052;-68
2022/10/31 09:10:05;;;;;;;27.83;13.15;;;15.30;99.90;;;;;;5052367;28;20053;-68
2022/10/31 09:12:34;;;;;;;24.27;13.57;;;15.50;99.90;;;;;;5053299;28;20385;-68
2022/10/31 09:15:19;;;;;;;27.15;13.57;;;15.60;99.90;;;;;;5052075;28;20136;-68
2022/10/31 09:17:48;;;;;;;27.77;13.82;;;15.80;99.90;;;;;;5061011;28;20036;-68
2022/10/31 09:20:31;;;;;;;21.70;12.45;;;15.80;99.90;;;;;;5054775;28;20392;-68
2022/10/31 09:22:58;;;;;;;24.63;13.10;;;15.90;99.90;;;;;;5072732;28;20579;-68
2022/10/31 09:25:25;;;;;;;31.75;13.38;;;15.80;99.90;;;;;;5074253;28;20426;-68
2022/10/31 09:28:11;;;;;;;22.05;12.80;;;15.70;99.90;;;;;;5047016;28;20029;-68
2022/10/31 09:30:37;;;;;;;24.60;13.13;;;15.70;99.90;;;;;;5039680;28;20322;-69
2022/10/31 09:33:11;;;;;;;18.60;12.10;;;15.80;99.90;;;;;;5047268;28;20119;-68
2022/10/31 09:35:38;;;;;;;26.27;12.20;;;15.80;99.90;;;;;;5050140;28;20071;-68
2022/10/31 09:38:15;;;;;;;31.42;13.30;;;15.80;99.90;;;;;;5048371;28;20033;-68
2022/10/31 09:40:44;;;;;;;39.38;14.43;;;15.90;99.90;;;;;;5045178;28;20094;-69
2022/10/31 09:43:26;;;;;;;30.40;13.40;;;15.80;99.90;;;;;;5045897;28;20040;-69
2022/10/31 09:46:22;;;;;;;25.98;14.00;;;15.50;99.90;;;;;;5047211;28;20104;-69
2022/10/31 09:49:06;;;;;;;24.48;13.77;;;15.60;99.90;;;;;;5032695;28;20120;-69
2022/10/31 09:52:02;;;;;;;27.85;14.00;;;15.50;99.90;;;;;;5049711;28;20028;-68
2022/10/31 09:54:51;;;;;;;26.55;13.88;;;15.60;99.90;;;;;;5047075;28;20124;-69
2022/10/31 09:57:40;;;;;;;46.13;14.82;;;15.60;99.90;;;;;;5049004;28;20032;-68
2022/10/31 10:00:14;;;;;;;24.83;14.13;;;15.60;99.90;;;;;;5048422;28;20505;-69
2022/10/31 10:02:50;;;;;;;23.95;14.10;;;15.70;99.90;;;;;;5045311;28;20428;-68
2022/10/31 10:05:52;;;;;;;24.40;13.73;;;15.60;99.90;;;;;;5047843;28;20358;-68
2022/10/31 10:08:31;;;;;;;53.63;15.77;;;15.60;99.90;;;;;;5042932;28;20500;-69
2022/10/31 10:11:32;;;;;;;23.27;14.95;;;15.70;99.90;;;;;;5047004;28;20362;-69
2022/10/31 10:14:32;;;;;;;54.75;16.90;;;15.60;99.90;;;;;;5054678;28;20032;-68
2022/10/31 10:17:28;;;;;;;34.42;15.00;;;15.60;99.90;;;;;;5048825;28;20098;-69
2022/10/31 10:20:30;;;;;;;32.25;13.63;;;15.50;99.90;;;;;;5051675;28;20037;-68
2022/10/31 10:23:19;;;;;;;30.33;14.38;;;15.20;99.90;;;;;;5053891;28;20036;-68
2022/10/31 10:25:49;;;;;;;28.95;14.43;;;15.40;99.90;;;;;;5055256;28;20477;-68
2022/10/31 10:28:25;;;;;;;24.55;13.70;;;15.40;99.90;;;;;;5051336;28;20056;-69
2022/10/31 10:31:03;;;;;;;31.38;14.98;;;15.70;99.90;;;;;;5048176;28;20494;-68
2022/10/31 10:33:35;;;;;;;25.63;14.00;;;15.80;99.90;;;;;;5052918;28;20132;-69
2022/10/31 10:36:05;;;;;;;37.63;14.20;;;15.80;99.90;;;;;;5052636;28;20506;-69
2022/10/31 10:38:52;;;;;;;26.58;13.82;;;16.00;99.90;;;;;;5053480;28;20257;-69
2022/10/31 10:41:22;;;;;;;24.77;14.07;;;16.10;99.90;;;;;;5053613;28;20084;-69
2022/10/31 10:43:53;;;;;;;29.42;14.65;;;16.20;99.90;;;;;;5055487;28;20051;-69
2022/10/31 10:49:34;;;;;;;31.10;15.20;;;16.60;99.90;;;;;;5051089;28;20419;-69
2022/10/31 10:52:08;;;;;;;30.13;14.55;;;16.70;99.90;;;;;;5035698;28;20029;-69
2022/10/31 10:54:40;;;;;;;28.30;14.73;;;16.80;99.90;;;;;;5051694;28;20155;-70
2022/10/31 10:57:21;;;;;;;31.13;15.27;;;16.80;99.90;;;;;;5050310;28;20032;-69
2022/10/31 10:59:47;;;;;;;24.63;13.40;;;17.00;99.90;;;;;;5057170;28;20127;-69
2022/10/31 11:02:23;;;;;;;27.83;14.18;;;16.90;99.90;;;;;;5053682;28;20033;-69
2022/10/31 11:04:57;;;;;;;30.35;14.35;;;17.10;99.90;;;;;;5052261;28;20605;-69
2022/10/31 11:07:23;;;;;;;29.83;14.88;;;17.30;99.90;;;;;;5046519;28;20048;-70
2022/10/31 11:09:49;;;;;;;30.05;13.98;;;17.60;99.90;;;;;;5053900;28;20461;-70
2022/10/31 11:12:15;;;;;;;26.63;13.93;;;17.60;99.90;;;;;;5054582;28;20025;-69
2022/10/31 11:14:55;;;;;;;26.33;14.00;;;17.70;99.90;;;;;;5050844;28;20052;-70
2022/10/31 11:17:39;;;;;;;23.40;14.98;;;17.70;99.90;;;;;;5058647;28;20025;-70
2022/10/31 11:20:13;;;;;;;31.65;14.90;;;17.80;99.90;;;;;;5050860;28;20040;-71
2022/10/31 11:22:44;;;;;;;30.15;14.93;;;17.80;99.90;;;;;;5053371;28;20020;-69
2022/10/31 11:25:19;;;;;;;27.98;17.73;;;17.70;99.90;;;;;;5052328;28;20440;-69
2022/10/31 11:27:45;;;;;;;29.17;16.85;;;17.50;99.90;;;;;;5052798;28;20054;-71
2022/10/31 11:30:14;;;;;;;34.90;17.65;;;17.40;99.90;;;;;;5051407;28;20021;-70
2022/10/31 11:32:53;;;;;;;31.15;18.63;;;17.60;99.90;;;;;;5055787;28;20028;-70
2022/10/31 11:35:21;;;;;;;37.58;18.67;;;17.80;99.90;;;;;;5053090;28;20025;-69
2022/10/31 11:37:50;;;;;;;38.35;18.83;;;17.80;99.90;;;;;;5052442;28;20041;-69
2022/10/31 11:40:21;;;;;;;42.80;21.25;;;17.60;99.90;;;;;;5055789;28;20048;-70
2022/10/31 11:42:48;;;;;;;;;;;17.30;99.90;;;;;;5054780;28;20108;-71
2022/10/31 11:45:28;;;;;;;35.70;21.63;;;17.50;99.90;;;;;;5055900;28;19911;-70
2022/10/31 11:47:56;;;;;;;36.38;20.50;;;17.20;99.90;;;;;;5055483;28;20025;-70
2022/10/31 11:50:25;;;;;;;32.03;21.00;;;17.30;99.90;;;;;;5055573;28;20057;-70
2022/10/31 11:52:54;;;;;;;42.58;21.73;;;17.20;99.90;;;;;;5055461;28;20017;-70
2022/10/31 11:55:37;;;;;;;54.63;22.70;;;17.30;99.90;;;;;;5055530;28;20029;-69
2022/10/31 11:58:04;;;;;;;37.17;21.65;;;17.30;99.90;;;;;;5055522;28;20029;-69
2022/10/31 12:00:51;;;;;;;33.10;21.92;;;17.40;99.90;;;;;;5055665;28;20048;-69
2022/10/31 12:03:22;;;;;;;40.40;21.77;;;17.20;99.90;;;;;;5053515;28;20029;-69
2022/10/31 12:06:05;;;;;;;41.80;21.48;;;17.20;99.90;;;;;;5055149;28;20025;-69
2022/10/31 12:08:35;;;;;;;44.78;21.00;;;17.20;99.90;;;;;;5055053;28;20024;-69
2022/10/31 12:11:36;;;;;;;37.20;21.92;;;17.10;99.90;;;;;;5055165;28;20021;-69
2022/10/31 12:14:11;;;;;;;50.47;23.02;;;17.30;99.90;;;;;;5043291;28;20070;-69
2022/10/31 12:16:49;;;;;;;45.47;20.45;;;17.30;99.90;;;;;;5044615;28;20017;-69
2022/10/31 12:19:17;;;;;;;45.08;20.67;;;17.50;99.90;;;;;;5048814;28;20436;-69
2022/10/31 12:21:44;;;;;;;35.03;21.13;;;18.10;99.90;;;;;;5043215;28;20025;-69
2022/10/31 12:24:34;;;;;;;34.75;19.88;;;18.60;99.90;;;;;;5036922;28;20026;-69
2022/10/31 12:27:18;;;;;;;35.42;19.40;;;18.60;99.90;;;;;;5043185;28;20033;-69
2022/10/31 12:30:18;;;;;;;34.90;19.95;;;18.30;99.90;;;;;;5053330;28;20017;-69
2022/10/31 12:32:52;;;;;;;45.92;20.83;;;18.30;99.90;;;;;;5045550;28;20048;-69
2022/10/31 12:35:26;;;;;;;36.53;20.95;;;18.20;99.90;;;;;;5046157;28;20031;-71
2022/10/31 12:37:57;;;;;;;34.55;20.23;;;18.20;99.90;;;;;;5037884;28;20029;-70
2022/10/31 12:40:35;;;;;;;32.78;18.88;;;18.20;99.90;;;;;;5049118;28;20032;-72
2022/10/31 12:43:21;;;;;;;33.67;20.70;;;18.10;99.90;;;;;;5051352;28;20029;-71
2022/10/31 12:45:56;;;;;;;29.27;19.17;;;18.10;99.90;;;;;;5048945;28;20486;-72
2022/10/31 12:48:40;;;;;;;35.17;19.90;;;18.00;99.90;;;;;;5054876;28;20036;-71
2022/10/31 12:51:35;;;;;;;44.88;19.98;;;17.90;99.90;;;;;;5054567;28;20061;-71
2022/10/31 12:54:36;;;;;;;33.03;21.00;;;17.90;99.90;;;;;;5053587;28;20087;-71
2022/10/31 12:57:20;;;;;;;30.33;19.23;;;17.80;99.90;;;;;;5053848;28;20477;-70
2022/10/31 12:59:57;;;;;;;36.50;21.13;;;17.70;99.90;;;;;;5053931;28;20025;-71
2022/10/31 13:02:51;;;;;;;47.80;20.52;;;17.70;99.90;;;;;;5053859;28;20029;-71
2022/10/31 13:05:30;;;;;;;46.80;22.50;;;17.90;99.90;;;;;;5054059;28;20043;-71
2022/10/31 13:07:59;;;;;;;39.17;20.83;;;18.00;99.90;;;;;;5049059;28;20033;-71